Time,TemperatureF,DewpointF,PressureIn,WindDirection,WindDirectionDegrees,WindSpeedMPH,WindSpeedGustMPH,Humidity,HourlyPrecipIn,Conditions,Clouds,dailyrainin,SoftwareType,DateUTC
2013-02-04 00:02:00,29.5,27.7,29.99,WNW,290,0.0,0.0,93,0.00,,,0.00,meteohub,2013-02-04 05:02:00,
2013-02-04 00:04:00,29.5,27.7,29.99,WNW,290,0.0,0.0,93,0.00,,,0.00,meteohub,2013-02-04 05:04:00,
2013-02-04 00:09:00,29.7,28.2,29.98,WNW,290,0.0,0.0,94,0.00,,,0.00,meteohub,2013-02-04 05:09:00,
2013-02-04 00:14:00,29.7,28.2,29.98,WNW,290,0.0,0.0,94,0.00,,,0.00,meteohub,2013-02-04 05:14:00,
2013-02-04 00:19:00,29.5,27.7,29.99,WNW,290,0.0,0.0,93,0.00,,,0.00,meteohub,2013-02-04 05:19:00,
2013-02-04 00:24:00,29.1,27.3,29.99,WNW,290,0.0,0.0,93,0.00,,,0.00,meteohub,2013-02-04 05:24:00,
2013-02-04 00:29:00,28.9,27.1,29.99,WNW,290,0.0,0.0,93,0.00,,,0.00,meteohub,2013-02-04 05:29:00,
2013-02-04 00:34:00,28.9,27.1,29.99,WNW,290,0.0,0.0,93,0.00,,,0.00,meteohub,2013-02-04 05:34:00,
2013-02-04 00:39:00,29.1,27.7,30.00,WNW,290,0.0,0.0,94,0.00,,,0.00,meteohub,2013-02-04 05:39:00,
2013-02-04 00:44:00,29.1,27.7,30.00,WNW,290,0.0,0.0,94,0.00,,,0.00,meteohub,2013-02-04 05:44:00,
2013-02-04 00:49:00,28.9,27.5,30.00,WNW,290,0.0,0.0,94,0.00,,,0.00,meteohub,2013-02-04 05:49:00,
2013-02-04 00:54:00,28.8,27.0,30.00,WNW,290,0.0,0.0,93,0.00,,,0.00,meteohub,2013-02-04 05:54:00,
2013-02-04 00:59:00,28.6,26.8,30.00,WNW,290,0.0,0.0,93,0.00,,,0.00,meteohub,2013-02-04 05:59:00,
2013-02-04 01:04:00,28.6,27.1,30.00,WNW,290,0.0,0.0,94,0.00,,,0.00,meteohub,2013-02-04 06:04:00,
2013-02-04 01:09:00,28.8,27.3,30.01,WNW,290,0.0,0.0,94,0.00,,,0.00,meteohub,2013-02-04 06:09:00,
2013-02-04 01:14:00,28.9,27.5,30.01,WNW,290,0.0,0.0,94,0.00,,,0.00,meteohub,2013-02-04 06:14:00,
2013-02-04 01:19:00,28.9,27.5,30.01,WNW,290,0.0,0.0,94,0.00,,,0.00,meteohub,2013-02-04 06:19:00,
2013-02-04 01:24:00,28.8,27.3,30.00,WNW,290,0.0,0.0,94,0.00,,,0.00,meteohub,2013-02-04 06:24:00,
2013-02-04 01:29:00,28.4,26.6,30.00,WNW,290,0.0,0.0,93,0.00,,,0.00,meteohub,2013-02-04 06:29:00,
2013-02-04 01:34:00,28.2,26.8,30.01,WNW,290,0.0,0.0,94,0.00,,,0.00,meteohub,2013-02-04 06:34:00,
2013-02-04 01:39:00,28.4,27.0,30.01,WNW,290,0.0,0.0,94,0.00,,,0.00,meteohub,2013-02-04 06:39:00,
2013-02-04 01:44:00,28.2,26.8,30.01,WNW,290,0.0,0.0,94,0.00,,,0.00,meteohub,2013-02-04 06:44:00,
2013-02-04 01:49:00,27.9,26.4,30.00,WNW,290,0.0,0.0,94,0.00,,,0.00,meteohub,2013-02-04 06:49:00,
2013-02-04 01:54:00,27.5,25.7,30.01,WNW,290,0.0,0.0,93,0.00,,,0.00,meteohub,2013-02-04 06:54:00,
2013-02-04 01:59:00,27.1,25.3,30.01,WNW,290,0.0,0.0,93,0.00,,,0.00,meteohub,2013-02-04 06:59:00,
2013-02-04 02:04:00,27.0,25.2,30.01,WNW,290,0.0,0.0,93,0.00,,,0.00,meteohub,2013-02-04 07:04:00,
2013-02-04 02:09:00,27.0,25.2,30.01,WNW,290,0.0,0.0,93,0.00,,,0.00,meteohub,2013-02-04 07:09:00,
2013-02-04 02:14:00,26.8,25.3,30.01,WNW,290,0.0,0.0,94,0.00,,,0.00,meteohub,2013-02-04 07:14:00,
2013-02-04 02:19:00,26.6,25.2,30.01,WNW,290,0.0,0.0,94,0.00,,,0.00,meteohub,2013-02-04 07:19:00,
2013-02-04 02:24:00,26.4,25.0,30.01,WNW,290,0.0,0.0,94,0.00,,,0.00,meteohub,2013-02-04 07:24:00,
2013-02-04 02:29:00,26.4,25.0,30.01,WNW,290,0.0,0.0,94,0.00,,,0.00,meteohub,2013-02-04 07:29:00,
2013-02-04 02:34:00,26.2,24.8,30.01,WNW,290,0.0,0.0,94,0.00,,,0.00,meteohub,2013-02-04 07:34:00,
2013-02-04 02:39:00,26.4,25.0,30.02,WNW,290,0.0,0.0,94,0.00,,,0.00,meteohub,2013-02-04 07:39:00,
2013-02-04 02:44:00,26.2,24.8,30.02,WNW,290,0.0,0.0,94,0.00,,,0.00,meteohub,2013-02-04 07:44:00,
2013-02-04 02:49:00,26.1,24.6,30.02,WNW,290,0.0,0.0,94,0.00,,,0.00,meteohub,2013-02-04 07:49:00,
2013-02-04 02:54:00,26.1,24.6,30.02,WNW,290,0.0,0.0,94,0.00,,,0.00,meteohub,2013-02-04 07:54:00,
2013-02-04 02:59:00,25.9,24.4,30.03,WNW,290,0.0,0.0,94,0.00,,,0.00,meteohub,2013-02-04 07:59:00,
2013-02-04 03:04:00,25.9,24.4,30.03,WNW,290,0.0,0.0,94,0.00,,,0.00,meteohub,2013-02-04 08:04:00,
2013-02-04 03:09:00,25.7,24.3,30.03,WNW,290,0.0,0.0,94,0.00,,,0.00,meteohub,2013-02-04 08:09:00,
2013-02-04 03:14:00,25.5,24.1,30.03,WNW,290,0.0,0.0,94,0.00,,,0.00,meteohub,2013-02-04 08:14:00,
2013-02-04 03:19:00,25.3,23.9,30.03,WNW,290,0.0,0.0,94,0.00,,,0.00,meteohub,2013-02-04 08:19:00,
2013-02-04 03:24:00,25.2,23.7,30.02,WNW,290,0.0,0.0,94,0.00,,,0.00,meteohub,2013-02-04 08:24:00,
2013-02-04 03:29:00,25.2,23.7,30.02,WNW,290,0.0,0.0,94,0.00,,,0.00,meteohub,2013-02-04 08:29:00,
2013-02-04 03:34:00,25.3,23.9,30.03,WNW,290,0.0,0.0,94,0.00,,,0.00,meteohub,2013-02-04 08:34:00,
2013-02-04 03:39:00,25.3,23.9,30.03,WNW,290,0.0,0.0,94,0.00,,,0.00,meteohub,2013-02-04 08:39:00,
2013-02-04 03:44:00,25.3,23.9,30.03,WNW,290,0.0,0.0,94,0.00,,,0.00,meteohub,2013-02-04 08:44:00,
2013-02-04 03:49:00,25.2,23.7,30.03,WNW,290,0.0,0.0,94,0.00,,,0.00,meteohub,2013-02-04 08:49:00,
2013-02-04 03:54:00,25.2,23.7,30.04,WNW,290,0.0,0.0,94,0.00,,,0.00,meteohub,2013-02-04 08:54:00,
2013-02-04 03:59:00,25.2,23.7,30.04,WNW,290,0.0,0.0,94,0.00,,,0.00,meteohub,2013-02-04 08:59:00,
2013-02-04 04:04:00,25.2,23.9,30.04,WNW,290,0.0,0.0,95,0.00,,,0.00,meteohub,2013-02-04 09:04:00,
2013-02-04 04:09:00,25.2,23.9,30.04,WNW,290,0.0,0.0,95,0.00,,,0.00,meteohub,2013-02-04 09:09:00,
2013-02-04 04:14:00,25.2,23.9,30.04,WNW,290,0.0,0.0,95,0.00,,,0.00,meteohub,2013-02-04 09:14:00,
2013-02-04 04:19:00,25.2,23.7,30.04,WNW,290,0.0,0.0,94,0.00,,,0.00,meteohub,2013-02-04 09:19:00,
2013-02-04 04:24:00,25.0,23.5,30.04,WNW,290,0.0,0.0,94,0.00,,,0.00,meteohub,2013-02-04 09:24:00,
2013-02-04 04:29:00,24.6,23.2,30.04,WNW,290,0.0,0.0,94,0.00,,,0.00,meteohub,2013-02-04 09:29:00,
2013-02-04 04:34:00,24.6,23.2,30.04,WNW,290,0.0,0.0,94,0.00,,,0.00,meteohub,2013-02-04 09:34:00,
2013-02-04 04:39:00,24.6,23.2,30.04,WNW,290,0.0,0.0,94,0.00,,,0.00,meteohub,2013-02-04 09:39:00,
2013-02-04 04:44:00,24.4,23.0,30.05,WNW,290,0.0,0.0,94,0.00,,,0.00,meteohub,2013-02-04 09:44:00,
2013-02-04 04:49:00,24.6,23.4,30.05,WNW,290,0.0,0.0,95,0.00,,,0.00,meteohub,2013-02-04 09:49:00,
2013-02-04 04:54:00,24.4,23.0,30.05,WNW,290,0.0,0.0,94,0.00,,,0.00,meteohub,2013-02-04 09:54:00,
2013-02-04 04:59:00,24.6,23.4,30.04,WNW,290,0.0,0.0,95,0.00,,,0.00,meteohub,2013-02-04 09:59:00,
2013-02-04 05:04:00,24.4,23.0,30.05,WNW,290,0.0,0.0,94,0.00,,,0.00,meteohub,2013-02-04 10:04:00,
2013-02-04 05:09:00,24.1,22.6,30.05,WNW,290,0.0,0.0,94,0.00,,,0.00,meteohub,2013-02-04 10:09:00,
2013-02-04 05:14:00,23.5,22.1,30.05,WNW,290,0.0,0.0,94,0.00,,,0.00,meteohub,2013-02-04 10:14:00,
2013-02-04 05:19:00,23.5,22.1,30.05,WNW,290,0.0,0.0,94,0.00,,,0.00,meteohub,2013-02-04 10:19:00,
2013-02-04 05:24:00,23.4,21.9,30.05,WNW,290,0.0,0.0,94,0.00,,,0.00,meteohub,2013-02-04 10:24:00,
2013-02-04 05:29:00,23.2,21.7,30.06,WNW,290,0.0,0.0,94,0.00,,,0.00,meteohub,2013-02-04 10:29:00,
2013-02-04 05:34:00,22.8,21.4,30.06,WNW,290,0.0,0.0,94,0.00,,,0.00,meteohub,2013-02-04 10:34:00,
2013-02-04 05:39:00,23.2,21.7,30.06,WNW,290,0.0,0.0,94,0.00,,,0.00,meteohub,2013-02-04 10:39:00,
2013-02-04 05:44:00,23.2,21.7,30.07,WNW,290,0.0,0.0,94,0.00,,,0.00,meteohub,2013-02-04 10:44:00,
2013-02-04 05:49:00,23.2,21.7,30.07,WNW,290,0.0,0.0,94,0.00,,,0.00,meteohub,2013-02-04 10:49:00,
2013-02-04 05:54:00,23.2,21.9,30.07,WNW,290,0.0,0.0,95,0.00,,,0.00,meteohub,2013-02-04 10:54:00,
2013-02-04 05:59:00,23.2,21.9,30.07,WNW,290,0.0,0.0,95,0.00,,,0.00,meteohub,2013-02-04 10:59:00,
2013-02-04 06:04:00,23.2,21.9,30.07,WNW,290,0.0,0.0,95,0.00,,,0.00,meteohub,2013-02-04 11:04:00,
2013-02-04 06:09:00,23.2,21.9,30.07,WNW,290,0.0,0.0,95,0.00,,,0.00,meteohub,2013-02-04 11:09:00,
2013-02-04 06:14:00,23.2,21.9,30.08,WNW,290,0.0,0.0,95,0.00,,,0.00,meteohub,2013-02-04 11:14:00,
2013-02-04 06:19:00,23.0,21.7,30.08,WNW,290,0.0,0.0,95,0.00,,,0.00,meteohub,2013-02-04 11:19:00,
2013-02-04 06:24:00,23.2,21.9,30.07,WNW,290,0.0,0.0,95,0.00,,,0.00,meteohub,2013-02-04 11:24:00,
2013-02-04 06:30:00,23.2,21.9,30.07,WNW,290,0.0,0.0,95,0.00,,,0.00,meteohub,2013-02-04 11:30:00,
2013-02-04 06:34:00,23.2,21.9,30.08,WNW,290,0.0,0.0,95,0.00,,,0.00,meteohub,2013-02-04 11:34:00,
2013-02-04 06:39:00,23.2,21.9,30.08,WNW,290,0.0,0.0,95,0.00,,,0.00,meteohub,2013-02-04 11:39:00,
2013-02-04 06:45:00,23.2,21.9,30.07,WNW,290,0.0,0.0,95,0.00,,,0.00,meteohub,2013-02-04 11:45:00,
2013-02-04 06:50:00,22.8,21.6,30.08,WNW,290,0.0,0.0,95,0.00,,,0.00,meteohub,2013-02-04 11:50:00,
2013-02-04 06:55:00,22.8,21.6,30.08,WNW,290,0.0,0.0,95,0.00,,,0.00,meteohub,2013-02-04 11:55:00,
2013-02-04 07:00:00,22.6,21.2,30.08,WNW,290,0.0,0.0,94,0.00,,,0.00,meteohub,2013-02-04 12:00:00,
2013-02-04 07:05:00,22.5,21.0,30.09,WNW,290,0.0,0.0,94,0.00,,,0.00,meteohub,2013-02-04 12:05:00,
2013-02-04 07:10:00,22.3,20.8,30.08,WNW,290,0.0,0.0,94,0.00,,,0.00,meteohub,2013-02-04 12:10:00,
2013-02-04 07:15:00,22.3,21.0,30.08,WNW,290,0.0,0.0,95,0.00,,,0.00,meteohub,2013-02-04 12:15:00,
2013-02-04 07:20:00,22.1,20.7,30.09,WNW,290,0.0,0.0,94,0.00,,,0.00,meteohub,2013-02-04 12:20:00,
2013-02-04 07:25:00,21.9,20.5,30.09,WNW,290,0.0,0.0,94,0.00,,,0.00,meteohub,2013-02-04 12:25:00,
2013-02-04 07:30:00,22.3,21.0,30.09,WNW,290,0.0,0.0,95,0.00,,,0.00,meteohub,2013-02-04 12:30:00,
2013-02-04 07:35:00,22.8,21.6,30.09,WNW,290,0.0,0.0,95,0.00,,,0.00,meteohub,2013-02-04 12:35:00,
2013-02-04 07:40:00,23.4,22.1,30.10,WNW,290,0.0,0.0,95,0.00,,,0.00,meteohub,2013-02-04 12:40:00,
2013-02-04 07:45:00,23.5,22.6,30.09,WNW,290,0.0,0.0,96,0.00,,,0.00,meteohub,2013-02-04 12:45:00,
2013-02-04 07:50:00,24.1,23.2,30.10,WNW,290,0.0,0.0,96,0.00,,,0.00,meteohub,2013-02-04 12:50:00,
2013-02-04 07:55:00,24.6,23.7,30.11,WNW,290,0.0,0.0,96,0.00,,,0.00,meteohub,2013-02-04 12:55:00,
2013-02-04 08:00:00,25.3,24.4,30.11,WNW,290,0.0,0.0,96,0.00,,,0.00,meteohub,2013-02-04 13:00:00,
2013-02-04 08:05:00,27.0,26.1,30.11,WNW,290,0.0,0.0,96,0.00,,,0.00,meteohub,2013-02-04 13:05:00,
2013-02-04 08:10:00,27.9,27.1,30.12,WNW,290,0.0,0.0,97,0.00,,,0.00,meteohub,2013-02-04 13:10:00,
2013-02-04 08:15:00,28.8,27.7,30.12,WNW,290,0.0,0.0,96,0.00,,,0.00,meteohub,2013-02-04 13:15:00,
2013-02-04 08:20:00,29.5,28.8,30.12,WNW,290,0.0,0.0,97,0.00,,,0.00,meteohub,2013-02-04 13:20:00,
2013-02-04 08:25:00,30.6,29.8,30.12,WNW,290,0.0,0.0,97,0.00,,,0.00,meteohub,2013-02-04 13:25:00,
2013-02-04 08:30:00,31.8,31.1,30.12,NE,46,0.0,0.0,97,0.00,,,0.00,meteohub,2013-02-04 13:30:00,
2013-02-04 08:35:00,32.5,31.5,30.13,NE,46,0.0,0.0,96,0.00,,,0.00,meteohub,2013-02-04 13:35:00,
2013-02-04 08:40:00,33.3,32.0,30.13,NE,46,0.0,0.0,95,0.00,,,0.00,meteohub,2013-02-04 13:40:00,
2013-02-04 08:45:00,34.0,32.2,30.12,East,79,0.0,0.0,93,0.00,,,0.00,meteohub,2013-02-04 13:45:00,
2013-02-04 08:50:00,35.1,32.2,30.13,NE,53,0.0,0.0,89,0.00,,,0.00,meteohub,2013-02-04 13:50:00,
2013-02-04 08:55:00,36.1,31.1,30.13,East,99,1.0,0.0,82,0.00,,,0.00,meteohub,2013-02-04 13:55:00,
2013-02-04 09:00:00,36.9,30.6,30.13,ENE,61,0.0,5.0,78,0.00,,,0.00,meteohub,2013-02-04 14:00:00,
2013-02-04 09:05:00,37.6,30.7,30.13,ENE,71,2.0,5.0,76,0.00,,,0.00,meteohub,2013-02-04 14:05:00,
2013-02-04 09:10:00,37.9,30.0,30.13,ENE,67,4.0,6.0,73,0.00,,,0.00,meteohub,2013-02-04 14:10:00,
2013-02-04 09:15:00,38.7,30.0,30.13,East,94,0.0,6.0,71,0.00,,,0.00,meteohub,2013-02-04 14:15:00,
2013-02-04 09:20:00,39.4,29.7,30.14,NE,55,2.0,7.0,68,0.00,,,0.00,meteohub,2013-02-04 14:20:00,
2013-02-04 09:25:00,39.7,29.7,30.14,NE,48,0.0,7.0,67,0.00,,,0.00,meteohub,2013-02-04 14:25:00,
2013-02-04 09:30:00,40.3,29.5,30.14,NE,55,1.0,7.0,65,0.00,,,0.00,meteohub,2013-02-04 14:30:00,
2013-02-04 09:35:00,40.5,28.4,30.14,ENE,78,0.0,5.0,62,0.00,,,0.00,meteohub,2013-02-04 14:35:00,
2013-02-04 09:40:00,40.6,28.2,30.14,East,90,0.0,5.0,61,0.00,,,0.00,meteohub,2013-02-04 14:40:00,
2013-02-04 09:45:00,40.8,28.4,30.14,East,80,0.0,5.0,61,0.00,,,0.00,meteohub,2013-02-04 14:45:00,
2013-02-04 09:50:00,41.5,28.8,30.14,ESE,103,1.0,5.0,60,0.00,,,0.00,meteohub,2013-02-04 14:50:00,
2013-02-04 09:55:00,42.3,28.9,30.15,SE,140,0.0,4.0,59,0.00,,,0.00,meteohub,2013-02-04 14:55:00,
2013-02-04 10:00:00,43.2,30.2,30.15,ENE,67,3.0,5.0,60,0.00,,,0.00,meteohub,2013-02-04 15:00:00,
2013-02-04 10:05:00,43.2,28.0,30.14,NNE,25,0.0,5.0,55,0.00,,,0.00,meteohub,2013-02-04 15:05:00,
2013-02-04 10:10:00,43.5,28.0,30.14,East,90,0.0,5.0,54,0.00,,,0.00,meteohub,2013-02-04 15:10:00,
2013-02-04 10:15:00,43.3,27.9,30.14,ESE,113,0.0,6.0,54,0.00,,,0.00,meteohub,2013-02-04 15:15:00,
2013-02-04 10:20:00,43.7,29.1,30.14,North,355,0.0,8.0,56,0.00,,,0.00,meteohub,2013-02-04 15:20:00,
2013-02-04 10:25:00,44.2,27.3,30.15,West,277,1.0,8.0,51,0.00,,,0.00,meteohub,2013-02-04 15:25:00,
2013-02-04 10:30:00,44.1,27.1,30.14,East,90,4.0,8.0,51,0.00,,,0.00,meteohub,2013-02-04 15:30:00,
2013-02-04 10:35:00,43.5,26.6,30.15,NNE,27,0.0,7.0,51,0.00,,,0.00,meteohub,2013-02-04 15:35:00,
2013-02-04 10:40:00,43.9,27.0,30.14,West,261,4.0,7.0,51,0.00,,,0.00,meteohub,2013-02-04 15:40:00,
2013-02-04 10:45:00,43.9,27.3,30.14,SSE,160,0.0,7.0,52,0.00,,,0.00,meteohub,2013-02-04 15:45:00,
2013-02-04 10:50:00,44.8,28.2,30.14,SW,225,0.0,8.0,52,0.00,,,0.00,meteohub,2013-02-04 15:50:00,
2013-02-04 10:55:00,45.3,27.9,30.14,ENE,62,3.0,8.0,50,0.00,,,0.00,meteohub,2013-02-04 15:55:00,
2013-02-04 11:00:00,45.1,27.1,30.14,West,277,5.0,8.0,49,0.00,,,0.00,meteohub,2013-02-04 16:00:00,
2013-02-04 11:05:00,45.0,27.5,30.14,SW,223,0.0,5.0,50,0.00,,,0.00,meteohub,2013-02-04 16:05:00,
2013-02-04 11:10:00,45.3,27.3,30.14,West,273,0.0,5.0,49,0.00,,,0.00,meteohub,2013-02-04 16:10:00,
2013-02-04 11:15:00,45.7,27.7,30.14,WNW,289,0.0,5.0,49,0.00,,,0.00,meteohub,2013-02-04 16:15:00,
2013-02-04 11:20:00,46.2,27.7,30.14,WSW,240,2.0,6.0,48,0.00,,,0.00,meteohub,2013-02-04 16:20:00,
2013-02-04 11:25:00,45.7,27.1,30.13,SW,229,0.0,6.0,48,0.00,,,0.00,meteohub,2013-02-04 16:25:00,
2013-02-04 11:30:00,46.2,28.0,30.14,West,261,0.0,6.0,49,0.00,,,0.00,meteohub,2013-02-04 16:30:00,
2013-02-04 11:35:00,46.4,27.9,30.13,West,260,0.0,6.0,48,0.00,,,0.00,meteohub,2013-02-04 16:35:00,
2013-02-04 11:40:00,46.8,27.7,30.14,ESE,123,0.0,7.0,47,0.00,,,0.00,meteohub,2013-02-04 16:40:00,
2013-02-04 11:45:00,46.4,27.3,30.13,West,273,0.0,7.0,47,0.00,,,0.00,meteohub,2013-02-04 16:45:00,
2013-02-04 11:50:00,46.0,27.9,30.13,West,275,6.0,10.0,49,0.00,,,0.00,meteohub,2013-02-04 16:50:00,
2013-02-04 11:55:00,45.1,27.1,30.13,WSW,248,0.0,10.0,49,0.00,,,0.00,meteohub,2013-02-04 16:55:00,
2013-02-04 12:00:00,46.4,29.3,30.13,WNW,294,0.0,10.0,51,0.00,,,0.00,meteohub,2013-02-04 17:00:00,
2013-02-04 12:05:00,47.7,28.9,30.12,ENE,69,0.0,10.0,48,0.00,,,0.00,meteohub,2013-02-04 17:05:00,
2013-02-04 12:10:00,47.8,28.6,30.12,WNW,282,2.0,7.0,47,0.00,,,0.00,meteohub,2013-02-04 17:10:00,
2013-02-04 12:15:00,47.8,28.6,30.12,WNW,288,0.0,8.0,47,0.00,,,0.00,meteohub,2013-02-04 17:15:00,
2013-02-04 12:20:00,47.7,28.4,30.12,West,263,0.0,8.0,47,0.00,,,0.00,meteohub,2013-02-04 17:20:00,
2013-02-04 12:25:00,48.0,29.3,30.12,WNW,286,0.0,8.0,48,0.00,,,0.00,meteohub,2013-02-04 17:25:00,
2013-02-04 12:30:00,48.6,28.8,30.12,WNW,296,0.0,6.0,46,0.00,,,0.00,meteohub,2013-02-04 17:30:00,
2013-02-04 12:35:00,48.6,27.7,30.12,NNW,329,0.0,6.0,44,0.00,,,0.00,meteohub,2013-02-04 17:35:00,
2013-02-04 12:40:00,48.0,27.7,30.11,WNW,282,2.0,3.0,45,0.00,,,0.00,meteohub,2013-02-04 17:40:00,
2013-02-04 12:45:00,47.7,27.9,30.11,West,268,0.0,5.0,46,0.00,,,0.00,meteohub,2013-02-04 17:45:00,
2013-02-04 12:50:00,47.7,27.9,30.11,WSW,250,3.0,5.0,46,0.00,,,0.00,meteohub,2013-02-04 17:50:00,
2013-02-04 12:55:00,47.7,27.9,30.11,West,263,4.0,5.0,46,0.00,,,0.00,meteohub,2013-02-04 17:55:00,
2013-02-04 13:00:00,47.8,28.0,30.11,WSW,242,3.0,7.0,46,0.00,,,0.00,meteohub,2013-02-04 18:00:00,
2013-02-04 13:05:00,47.7,27.3,30.11,WSW,241,0.0,7.0,45,0.00,,,0.00,meteohub,2013-02-04 18:05:00,
2013-02-04 13:10:00,47.5,27.1,30.10,West,270,0.0,7.0,45,0.00,,,0.00,meteohub,2013-02-04 18:10:00,
2013-02-04 13:15:00,47.7,28.4,30.09,NNW,340,0.0,5.0,47,0.00,,,0.00,meteohub,2013-02-04 18:15:00,
2013-02-04 13:20:00,47.5,27.1,30.10,West,277,1.0,6.0,45,0.00,,,0.00,meteohub,2013-02-04 18:20:00,
2013-02-04 13:25:00,47.3,27.5,30.10,WSW,253,1.0,7.0,46,0.00,,,0.00,meteohub,2013-02-04 18:25:00,
2013-02-04 13:30:00,47.5,27.1,30.09,West,267,0.0,7.0,45,0.00,,,0.00,meteohub,2013-02-04 18:30:00,
2013-02-04 13:35:00,47.1,27.3,30.09,WSW,237,0.0,7.0,46,0.00,,,0.00,meteohub,2013-02-04 18:35:00,
2013-02-04 13:40:00,47.7,27.3,30.09,WSW,238,1.0,4.0,45,0.00,,,0.00,meteohub,2013-02-04 18:40:00,
2013-02-04 13:45:00,47.8,27.5,30.09,SW,228,0.0,4.0,45,0.00,,,0.00,meteohub,2013-02-04 18:45:00,
2013-02-04 13:50:00,48.2,29.5,30.09,SE,136,0.0,4.0,48,0.00,,,0.00,meteohub,2013-02-04 18:50:00,
2013-02-04 13:55:00,48.4,28.0,30.09,WSW,254,0.0,4.0,45,0.00,,,0.00,meteohub,2013-02-04 18:55:00,
2013-02-04 14:00:00,47.8,31.5,30.09,ESE,107,0.0,2.0,53,0.00,,,0.00,meteohub,2013-02-04 19:00:00,
2013-02-04 14:05:00,47.7,31.3,30.08,East,98,6.0,6.0,53,0.00,,,0.00,meteohub,2013-02-04 19:05:00,
2013-02-04 14:10:00,46.9,30.7,30.09,East,88,1.0,6.0,53,0.00,,,0.00,meteohub,2013-02-04 19:10:00,
2013-02-04 14:15:00,46.6,30.7,30.09,East,100,0.0,8.0,54,0.00,,,0.00,meteohub,2013-02-04 19:15:00,
2013-02-04 14:20:00,46.8,30.9,30.09,East,100,0.0,8.0,54,0.00,,,0.00,meteohub,2013-02-04 19:20:00,
2013-02-04 14:25:00,47.1,31.3,30.09,SSE,153,0.0,8.0,54,0.00,,,0.00,meteohub,2013-02-04 19:25:00,
2013-02-04 14:30:00,46.9,31.1,30.08,South,186,0.0,7.0,54,0.00,,,0.00,meteohub,2013-02-04 19:30:00,
2013-02-04 14:35:00,47.1,31.3,30.08,East,101,4.0,7.0,54,0.00,,,0.00,meteohub,2013-02-04 19:35:00,
2013-02-04 14:40:00,46.9,31.6,30.08,East,93,1.0,4.0,55,0.00,,,0.00,meteohub,2013-02-04 19:40:00,
2013-02-04 14:45:00,46.8,31.5,30.07,ESE,113,0.0,8.0,55,0.00,,,0.00,meteohub,2013-02-04 19:45:00,
2013-02-04 14:50:00,46.4,32.0,30.07,East,98,1.0,8.0,57,0.00,,,0.00,meteohub,2013-02-04 19:50:00,
2013-02-04 14:55:00,46.2,31.8,30.07,SE,126,5.0,7.0,57,0.00,,,0.00,meteohub,2013-02-04 19:55:00,
2013-02-04 15:00:00,46.0,32.0,30.07,ENE,74,0.0,7.0,58,0.00,,,0.00,meteohub,2013-02-04 20:00:00,
2013-02-04 15:05:00,46.0,31.6,30.06,ENE,71,0.0,6.0,57,0.00,,,0.00,meteohub,2013-02-04 20:05:00,
2013-02-04 15:10:00,46.2,32.2,30.06,East,86,2.0,6.0,58,0.00,,,0.00,meteohub,2013-02-04 20:10:00,
2013-02-04 15:15:00,46.0,32.0,30.06,NE,53,0.0,6.0,58,0.00,,,0.00,meteohub,2013-02-04 20:15:00,
2013-02-04 15:20:00,45.9,32.0,30.06,East,98,0.0,6.0,58,0.00,,,0.00,meteohub,2013-02-04 20:20:00,
2013-02-04 15:25:00,45.7,31.8,30.06,ESE,105,2.0,6.0,58,0.00,,,0.00,meteohub,2013-02-04 20:25:00,
2013-02-04 15:30:00,45.1,31.6,30.06,ESE,111,6.0,6.0,59,0.00,,,0.00,meteohub,2013-02-04 20:30:00,
2013-02-04 15:35:00,45.1,31.6,30.07,SSW,213,0.0,7.0,59,0.00,,,0.00,meteohub,2013-02-04 20:35:00,
2013-02-04 15:40:00,45.3,31.8,30.07,ESE,111,0.0,7.0,59,0.00,,,0.00,meteohub,2013-02-04 20:40:00,
2013-02-04 15:45:00,45.3,32.7,30.06,NW,326,0.0,7.0,61,0.00,,,0.00,meteohub,2013-02-04 20:45:00,
2013-02-04 15:50:00,45.3,32.7,30.07,SE,125,4.0,5.0,61,0.00,,,0.00,meteohub,2013-02-04 20:50:00,
2013-02-04 15:55:00,45.3,32.2,30.06,SW,214,0.0,6.0,60,0.00,,,0.00,meteohub,2013-02-04 20:55:00,
2013-02-04 16:00:00,45.3,32.2,30.07,SW,214,3.0,6.0,60,0.00,,,0.00,meteohub,2013-02-04 21:00:00,
2013-02-04 16:05:00,45.5,32.4,30.07,West,263,0.0,7.0,60,0.00,,,0.00,meteohub,2013-02-04 21:05:00,
2013-02-04 16:10:00,45.5,32.4,30.07,ESE,107,1.0,7.0,60,0.00,,,0.00,meteohub,2013-02-04 21:10:00,
2013-02-04 16:15:00,45.3,32.2,30.07,SSW,192,0.0,7.0,60,0.00,,,0.00,meteohub,2013-02-04 21:15:00,
2013-02-04 16:20:00,45.3,32.7,30.07,SSW,192,0.0,6.0,61,0.00,,,0.00,meteohub,2013-02-04 21:20:00,
2013-02-04 16:25:00,45.5,32.9,30.07,SSW,194,0.0,5.0,61,0.00,,,0.00,meteohub,2013-02-04 21:25:00,
2013-02-04 16:30:00,45.5,32.9,30.07,WSW,250,0.0,5.0,61,0.00,,,0.00,meteohub,2013-02-04 21:30:00,
2013-02-04 16:35:00,45.7,33.1,30.07,SSW,202,0.0,5.0,61,0.00,,,0.00,meteohub,2013-02-04 21:35:00,
2013-02-04 16:40:00,45.5,32.9,30.07,SSE,150,0.0,4.0,61,0.00,,,0.00,meteohub,2013-02-04 21:40:00,
2013-02-04 16:46:00,45.5,33.3,30.08,SSW,196,0.0,4.0,62,0.00,,,0.00,meteohub,2013-02-04 21:46:00,
2013-02-04 16:51:00,45.3,33.1,30.08,SW,221,0.0,6.0,62,0.00,,,0.00,meteohub,2013-02-04 21:51:00,
2013-02-04 16:55:00,45.3,33.1,30.07,SSW,209,0.0,6.0,62,0.00,,,0.00,meteohub,2013-02-04 21:55:00,
2013-02-04 17:01:00,45.1,32.9,30.08,SW,234,0.0,6.0,62,0.00,,,0.00,meteohub,2013-02-04 22:01:00,
2013-02-04 17:06:00,45.1,33.3,30.08,WSW,241,1.0,6.0,63,0.00,,,0.00,meteohub,2013-02-04 22:06:00,
2013-02-04 17:11:00,45.0,33.4,30.08,SSW,213,3.0,6.0,64,0.00,,,0.00,meteohub,2013-02-04 22:11:00,
2013-02-04 17:16:00,45.0,33.1,30.08,WSW,241,1.0,7.0,63,0.00,,,0.00,meteohub,2013-02-04 22:16:00,
2013-02-04 17:21:00,44.8,33.3,30.08,SSW,201,3.0,7.0,64,0.00,,,0.00,meteohub,2013-02-04 22:21:00,
2013-02-04 17:26:00,44.8,33.3,30.09,SW,228,0.0,7.0,64,0.00,,,0.00,meteohub,2013-02-04 22:26:00,
2013-02-04 17:31:00,44.6,33.6,30.08,SW,232,0.0,7.0,65,0.00,,,0.00,meteohub,2013-02-04 22:31:00,
2013-02-04 17:36:00,44.4,33.4,30.09,SW,215,0.0,6.0,65,0.00,,,0.00,meteohub,2013-02-04 22:36:00,
2013-02-04 17:41:00,44.4,33.8,30.09,SSW,211,2.0,6.0,66,0.00,,,0.00,meteohub,2013-02-04 22:41:00,
2013-02-04 17:46:00,44.2,33.3,30.09,SW,220,3.0,6.0,65,0.00,,,0.00,meteohub,2013-02-04 22:46:00,
2013-02-04 17:51:00,44.2,33.6,30.09,South,188,0.0,6.0,66,0.00,,,0.00,meteohub,2013-02-04 22:51:00,
2013-02-04 17:56:00,44.1,33.4,30.08,SW,215,0.0,5.0,66,0.00,,,0.00,meteohub,2013-02-04 22:56:00,
2013-02-04 18:01:00,44.1,33.4,30.08,SSW,199,0.0,5.0,66,0.00,,,0.00,meteohub,2013-02-04 23:01:00,
2013-02-04 18:06:00,43.9,33.6,30.08,South,175,0.0,4.0,67,0.00,,,0.00,meteohub,2013-02-04 23:06:00,
2013-02-04 18:11:00,43.7,33.4,30.08,South,180,0.0,4.0,67,0.00,,,0.00,meteohub,2013-02-04 23:11:00,
2013-02-04 18:16:00,43.5,33.3,30.08,SSW,196,0.0,4.0,67,0.00,,,0.00,meteohub,2013-02-04 23:16:00,
2013-02-04 18:21:00,43.5,33.3,30.08,SSE,166,0.0,4.0,67,0.00,,,0.00,meteohub,2013-02-04 23:21:00,
2013-02-04 18:26:00,43.5,33.6,30.08,South,182,0.0,3.0,68,0.00,,,0.00,meteohub,2013-02-04 23:26:00,
2013-02-04 18:31:00,43.3,33.4,30.08,South,184,0.0,3.0,68,0.00,,,0.00,meteohub,2013-02-04 23:31:00,
2013-02-04 18:36:00,43.3,33.4,30.08,SSW,192,0.0,3.0,68,0.00,,,0.00,meteohub,2013-02-04 23:36:00,
2013-02-04 18:41:00,43.3,33.4,30.08,SSW,198,1.0,2.0,68,0.00,,,0.00,meteohub,2013-02-04 23:41:00,
2013-02-04 18:46:00,43.3,33.4,30.08,South,190,0.0,2.0,68,0.00,,,0.00,meteohub,2013-02-04 23:46:00,
2013-02-04 18:51:00,43.3,33.8,30.08,SSW,195,0.0,2.0,69,0.00,,,0.00,meteohub,2013-02-04 23:51:00,
2013-02-04 18:56:00,43.5,34.0,30.07,South,188,0.0,1.0,69,0.00,,,0.00,meteohub,2013-02-04 23:56:00,
2013-02-04 19:01:00,43.5,34.0,30.08,South,171,0.0,0.0,69,0.00,,,0.00,meteohub,2013-02-05 00:01:00,
2013-02-04 19:06:00,43.3,34.2,30.08,South,171,0.0,0.0,70,0.00,,,0.00,meteohub,2013-02-05 00:06:00,
2013-02-04 19:11:00,43.2,34.7,30.08,South,171,0.0,0.0,72,0.00,,,0.00,meteohub,2013-02-05 00:11:00,
2013-02-04 19:16:00,42.6,34.5,30.08,South,171,0.0,0.0,73,0.00,,,0.00,meteohub,2013-02-05 00:16:00,
2013-02-04 19:21:00,42.4,35.1,30.08,South,171,0.0,0.0,75,0.00,,,0.00,meteohub,2013-02-05 00:21:00,
2013-02-04 19:26:00,42.1,35.1,30.08,South,171,0.0,0.0,76,0.00,,,0.00,meteohub,2013-02-05 00:26:00,
2013-02-04 19:31:00,41.7,35.1,30.07,South,171,0.0,0.0,77,0.00,,,0.00,meteohub,2013-02-05 00:31:00,
2013-02-04 19:36:00,41.4,34.7,30.06,South,171,0.0,0.0,77,0.00,,,0.00,meteohub,2013-02-05 00:36:00,
2013-02-04 19:41:00,41.2,34.5,30.07,South,171,0.0,0.0,77,0.00,,,0.00,meteohub,2013-02-05 00:41:00,
2013-02-04 19:46:00,41.0,34.7,30.07,South,171,0.0,0.0,78,0.00,,,0.00,meteohub,2013-02-05 00:46:00,
2013-02-04 19:51:00,40.8,34.9,30.06,South,171,0.0,0.0,79,0.00,,,0.00,meteohub,2013-02-05 00:51:00,
2013-02-04 19:56:00,40.6,34.9,30.06,South,171,0.0,0.0,80,0.00,,,0.00,meteohub,2013-02-05 00:56:00,
2013-02-04 20:01:00,40.5,34.7,30.06,South,171,0.0,0.0,80,0.00,,,0.00,meteohub,2013-02-05 01:01:00,
2013-02-04 20:06:00,40.1,34.2,30.06,South,171,0.0,0.0,79,0.00,,,0.00,meteohub,2013-02-05 01:06:00,
2013-02-04 20:11:00,39.7,33.8,30.06,South,171,0.0,0.0,79,0.00,,,0.00,meteohub,2013-02-05 01:11:00,
2013-02-04 20:16:00,39.6,33.6,30.06,South,171,0.0,0.0,79,0.00,,,0.00,meteohub,2013-02-05 01:16:00,
2013-02-04 20:21:00,39.4,33.4,30.06,South,171,0.0,0.0,79,0.00,,,0.00,meteohub,2013-02-05 01:21:00,
2013-02-04 20:26:00,39.2,33.8,30.06,South,171,0.0,0.0,81,0.00,,,0.00,meteohub,2013-02-05 01:26:00,
2013-02-04 20:31:00,39.2,34.5,30.07,South,171,0.0,0.0,83,0.00,,,0.00,meteohub,2013-02-05 01:31:00,
2013-02-04 20:36:00,39.0,34.3,30.06,South,171,0.0,0.0,83,0.00,,,0.00,meteohub,2013-02-05 01:36:00,
2013-02-04 20:41:00,39.0,34.3,30.06,South,171,0.0,0.0,83,0.00,,,0.00,meteohub,2013-02-05 01:41:00,
2013-02-04 20:46:00,38.8,34.2,30.06,South,171,0.0,0.0,83,0.00,,,0.00,meteohub,2013-02-05 01:46:00,
2013-02-04 20:51:00,38.8,34.2,30.06,South,171,0.0,0.0,83,0.00,,,0.00,meteohub,2013-02-05 01:51:00,
2013-02-04 20:56:00,38.8,34.3,30.06,South,171,0.0,0.0,84,0.00,,,0.00,meteohub,2013-02-05 01:56:00,
2013-02-04 21:01:00,38.8,34.3,30.06,South,171,0.0,0.0,84,0.00,,,0.00,meteohub,2013-02-05 02:01:00,
2013-02-04 21:06:00,38.7,34.2,30.05,South,171,0.0,0.0,84,0.00,,,0.00,meteohub,2013-02-05 02:06:00,
2013-02-04 21:11:00,38.7,34.2,30.06,South,171,0.0,0.0,84,0.00,,,0.00,meteohub,2013-02-05 02:11:00,
2013-02-04 21:16:00,38.5,34.2,30.06,South,171,0.0,0.0,84,0.00,,,0.00,meteohub,2013-02-05 02:16:00,
2013-02-04 21:21:00,38.3,34.0,30.06,South,171,0.0,0.0,84,0.00,,,0.00,meteohub,2013-02-05 02:21:00,
2013-02-04 21:26:00,38.1,34.0,30.06,South,171,0.0,0.0,85,0.00,,,0.00,meteohub,2013-02-05 02:26:00,
2013-02-04 21:31:00,38.1,34.0,30.06,South,171,0.0,0.0,85,0.00,,,0.00,meteohub,2013-02-05 02:31:00,
2013-02-04 21:36:00,37.9,33.8,30.06,South,171,0.0,0.0,85,0.00,,,0.00,meteohub,2013-02-05 02:36:00,
2013-02-04 21:41:00,37.9,33.8,30.06,South,171,0.0,0.0,85,0.00,,,0.00,meteohub,2013-02-05 02:41:00,
2013-02-04 21:46:00,37.9,33.8,30.06,South,171,0.0,0.0,85,0.00,,,0.00,meteohub,2013-02-05 02:46:00,
2013-02-04 21:51:00,38.1,34.5,30.05,South,171,0.0,0.0,87,0.00,,,0.00,meteohub,2013-02-05 02:51:00,
2013-02-04 21:56:00,38.1,34.3,30.06,South,171,0.0,0.0,86,0.00,,,0.00,meteohub,2013-02-05 02:56:00,
2013-02-04 22:01:00,37.9,34.2,30.06,South,171,0.0,0.0,86,0.00,,,0.00,meteohub,2013-02-05 03:01:00,
2013-02-04 22:06:00,37.9,34.2,30.06,South,171,0.0,0.0,86,0.00,,,0.00,meteohub,2013-02-05 03:06:00,
2013-02-04 22:11:00,37.9,34.3,30.06,South,171,0.0,0.0,87,0.00,,,0.00,meteohub,2013-02-05 03:11:00,
2013-02-04 22:16:00,37.9,34.3,30.06,South,171,0.0,0.0,87,0.00,,,0.00,meteohub,2013-02-05 03:16:00,
2013-02-04 22:21:00,38.1,34.5,30.06,South,171,0.0,0.0,87,0.00,,,0.00,meteohub,2013-02-05 03:21:00,
2013-02-04 22:26:00,38.5,34.9,30.06,South,171,0.0,0.0,87,0.00,,,0.00,meteohub,2013-02-05 03:26:00,
2013-02-04 22:31:00,38.5,34.9,30.06,South,171,0.0,0.0,87,0.00,,,0.00,meteohub,2013-02-05 03:31:00,
2013-02-04 22:36:00,38.5,34.9,30.06,South,171,0.0,0.0,87,0.00,,,0.00,meteohub,2013-02-05 03:36:00,
2013-02-04 22:41:00,38.5,34.9,30.06,South,171,0.0,0.0,87,0.00,,,0.00,meteohub,2013-02-05 03:41:00,
2013-02-04 22:46:00,38.5,35.2,30.06,South,171,0.0,0.0,88,0.00,,,0.00,meteohub,2013-02-05 03:46:00,
2013-02-04 22:51:00,38.7,35.4,30.06,South,171,0.0,0.0,88,0.00,,,0.00,meteohub,2013-02-05 03:51:00,
2013-02-04 22:56:00,38.8,35.6,30.06,South,171,0.0,0.0,88,0.00,,,0.00,meteohub,2013-02-05 03:56:00,
2013-02-04 23:01:00,39.0,35.8,30.06,South,171,0.0,0.0,88,0.00,,,0.00,meteohub,2013-02-05 04:01:00,
2013-02-04 23:06:00,39.0,35.8,30.05,South,171,0.0,0.0,88,0.00,,,0.00,meteohub,2013-02-05 04:06:00,
2013-02-04 23:11:00,38.8,35.6,30.05,South,171,0.0,0.0,88,0.00,,,0.00,meteohub,2013-02-05 04:11:00,
2013-02-04 23:16:00,39.0,36.1,30.05,South,171,0.0,0.0,89,0.00,,,0.00,meteohub,2013-02-05 04:16:00,
2013-02-04 23:21:00,38.8,35.6,30.05,South,171,0.0,0.0,88,0.00,,,0.00,meteohub,2013-02-05 04:21:00,
2013-02-04 23:26:00,38.8,36.0,30.06,South,171,0.0,0.0,89,0.00,,,0.00,meteohub,2013-02-05 04:26:00,
2013-02-04 23:31:00,38.8,36.0,30.06,South,171,0.0,0.0,89,0.00,,,0.00,meteohub,2013-02-05 04:31:00,
2013-02-04 23:36:00,38.8,36.0,30.06,South,171,0.0,0.0,89,0.00,,,0.00,meteohub,2013-02-05 04:36:00,
2013-02-04 23:41:00,38.8,36.0,30.06,South,171,0.0,0.0,89,0.00,,,0.00,meteohub,2013-02-05 04:41:00,
2013-02-04 23:46:00,38.8,36.0,30.06,South,171,0.0,0.0,89,0.00,,,0.00,meteohub,2013-02-05 04:46:00,
2013-02-04 23:51:00,38.8,36.0,30.06,South,171,0.0,0.0,89,0.00,,,0.00,meteohub,2013-02-05 04:51:00,
2013-02-04 23:56:00,38.8,36.0,30.06,South,171,0.0,0.0,89,0.00,,,0.00,meteohub,2013-02-05 04:56:00,